sensor_id;sensor_type;location;lat;lon;timestamp;temperature;humidity
62573;DHT22;48626;51.678;5.806;2023-11-21T00:02:15;9.30;99.90
62573;DHT22;48626;51.678;5.806;2023-11-21T00:04:40;9.20;99.90
62573;DHT22;48626;51.678;5.806;2023-11-21T00:07:06;9.20;99.90
62573;DHT22;48626;51.678;5.806;2023-11-21T00:09:32;9.20;99.90
62573;DHT22;48626;51.678;5.806;2023-11-21T00:11:58;9.10;99.90
62573;DHT22;48626;51.678;5.806;2023-11-21T00:14:28;9.10;99.90
62573;DHT22;48626;51.678;5.806;2023-11-21T00:16:53;9.10;99.90
62573;DHT22;48626;51.678;5.806;2023-11-21T00:19:19;9.00;99.90
62573;DHT22;48626;51.678;5.806;2023-11-21T00:21:45;9.00;99.90
62573;DHT22;48626;51.678;5.806;2023-11-21T00:24:12;8.90;99.90
62573;DHT22;48626;51.678;5.806;2023-11-21T00:26:39;8.80;99.90
62573;DHT22;48626;51.678;5.806;2023-11-21T00:29:05;8.80;99.90
62573;DHT22;48626;51.678;5.806;2023-11-21T00:31:36;8.70;99.90
62573;DHT22;48626;51.678;5.806;2023-11-21T00:34:05;8.60;99.90
62573;DHT22;48626;51.678;5.806;2023-11-21T00:36:31;8.50;99.90
62573;DHT22;48626;51.678;5.806;2023-11-21T00:38:58;8.40;99.90
62573;DHT22;48626;51.678;5.806;2023-11-21T00:41:24;8.40;99.90
62573;DHT22;48626;51.678;5.806;2023-11-21T00:43:53;8.30;99.90
62573;DHT22;48626;51.678;5.806;2023-11-21T00:46:19;8.30;99.90
62573;DHT22;48626;51.678;5.806;2023-11-21T00:48:44;8.30;99.90
62573;DHT22;48626;51.678;5.806;2023-11-21T00:51:10;8.20;99.90
62573;DHT22;48626;51.678;5.806;2023-11-21T00:53:36;8.10;99.90
62573;DHT22;48626;51.678;5.806;2023-11-21T00:56:01;8.10;99.90
62573;DHT22;48626;51.678;5.806;2023-11-21T00:58:28;8.00;99.90
62573;DHT22;48626;51.678;5.806;2023-11-21T01:00:53;8.00;99.90
62573;DHT22;48626;51.678;5.806;2023-11-21T01:03:19;8.00;99.90
62573;DHT22;48626;51.678;5.806;2023-11-21T01:05:45;7.90;99.90
62573;DHT22;48626;51.678;5.806;2023-11-21T01:08:11;7.90;99.90
62573;DHT22;48626;51.678;5.806;2023-11-21T01:10:37;7.90;99.90
62573;DHT22;48626;51.678;5.806;2023-11-21T01:13:03;7.80;99.90
62573;DHT22;48626;51.678;5.806;2023-11-21T01:15:33;7.80;99.90
62573;DHT22;48626;51.678;5.806;2023-11-21T01:17:59;7.80;99.90
62573;DHT22;48626;51.678;5.806;2023-11-21T01:20:25;7.70;99.90
62573;DHT22;48626;51.678;5.806;2023-11-21T01:22:51;7.70;99.90
62573;DHT22;48626;51.678;5.806;2023-11-21T01:25:19;7.70;99.90
62573;DHT22;48626;51.678;5.806;2023-11-21T01:27:46;7.70;99.90
62573;DHT22;48626;51.678;5.806;2023-11-21T01:30:12;7.80;99.90
62573;DHT22;48626;51.678;5.806;2023-11-21T01:32:38;7.80;99.90
62573;DHT22;48626;51.678;5.806;2023-11-21T01:35:05;7.80;99.90
62573;DHT22;48626;51.678;5.806;2023-11-21T01:37:32;7.80;99.90
62573;DHT22;48626;51.678;5.806;2023-11-21T01:39:58;7.90;99.90
62573;DHT22;48626;51.678;5.806;2023-11-21T01:42:24;7.90;99.90
62573;DHT22;48626;51.678;5.806;2023-11-21T01:44:50;7.80;99.90
62573;DHT22;48626;51.678;5.806;2023-11-21T01:47:16;7.90;99.90
62573;DHT22;48626;51.678;5.806;2023-11-21T01:49:45;7.90;99.90
62573;DHT22;48626;51.678;5.806;2023-11-21T01:52:12;7.90;99.90
62573;DHT22;48626;51.678;5.806;2023-11-21T01:54:38;8.00;99.90
62573;DHT22;48626;51.678;5.806;2023-11-21T01:57:05;8.10;99.90
62573;DHT22;48626;51.678;5.806;2023-11-21T01:59:36;8.10;99.90
62573;DHT22;48626;51.678;5.806;2023-11-21T02:02:05;8.20;99.90
62573;DHT22;48626;51.678;5.806;2023-11-21T02:04:32;8.30;99.90
62573;DHT22;48626;51.678;5.806;2023-11-21T02:06:58;8.30;99.90
62573;DHT22;48626;51.678;5.806;2023-11-21T02:09:27;8.30;99.90
62573;DHT22;48626;51.678;5.806;2023-11-21T02:11:55;8.40;99.90
62573;DHT22;48626;51.678;5.806;2023-11-21T02:14:21;8.40;99.90
62573;DHT22;48626;51.678;5.806;2023-11-21T02:16:51;8.40;99.90
62573;DHT22;48626;51.678;5.806;2023-11-21T02:19:21;8.50;99.90
62573;DHT22;48626;51.678;5.806;2023-11-21T02:21:56;8.50;99.90
62573;DHT22;48626;51.678;5.806;2023-11-21T02:24:28;8.60;99.90
62573;DHT22;48626;51.678;5.806;2023-11-21T02:26:54;8.60;99.90
62573;DHT22;48626;51.678;5.806;2023-11-21T02:29:21;8.60;99.90
62573;DHT22;48626;51.678;5.806;2023-11-21T02:31:54;8.60;99.90
62573;DHT22;48626;51.678;5.806;2023-11-21T02:34:21;8.70;99.90
62573;DHT22;48626;51.678;5.806;2023-11-21T02:36:47;8.70;99.90
62573;DHT22;48626;51.678;5.806;2023-11-21T02:39:17;8.70;99.90
62573;DHT22;48626;51.678;5.806;2023-11-21T02:41:43;8.70;99.90
62573;DHT22;48626;51.678;5.806;2023-11-21T02:44:09;8.70;99.90
62573;DHT22;48626;51.678;5.806;2023-11-21T02:46:36;8.70;99.90
62573;DHT22;48626;51.678;5.806;2023-11-21T02:49:03;8.80;99.90
62573;DHT22;48626;51.678;5.806;2023-11-21T02:51:29;8.80;99.90
62573;DHT22;48626;51.678;5.806;2023-11-21T02:53:56;8.80;99.90
62573;DHT22;48626;51.678;5.806;2023-11-21T02:56:26;8.80;99.90
62573;DHT22;48626;51.678;5.806;2023-11-21T02:58:52;8.80;99.90
62573;DHT22;48626;51.678;5.806;2023-11-21T03:01:18;8.80;99.90
62573;DHT22;48626;51.678;5.806;2023-11-21T03:03:43;8.90;99.90
62573;DHT22;48626;51.678;5.806;2023-11-21T03:06:09;8.90;99.90
62573;DHT22;48626;51.678;5.806;2023-11-21T03:08:35;8.90;99.90
62573;DHT22;48626;51.678;5.806;2023-11-21T03:11:01;8.90;99.90
62573;DHT22;48626;51.678;5.806;2023-11-21T03:13:28;8.90;99.90
62573;DHT22;48626;51.678;5.806;2023-11-21T03:15:54;8.90;99.90
62573;DHT22;48626;51.678;5.806;2023-11-21T03:18:20;8.90;99.90
62573;DHT22;48626;51.678;5.806;2023-11-21T03:20:47;8.90;99.90
62573;DHT22;48626;51.678;5.806;2023-11-21T03:23:13;8.90;99.90
62573;DHT22;48626;51.678;5.806;2023-11-21T03:25:39;8.90;99.90
62573;DHT22;48626;51.678;5.806;2023-11-21T03:28:04;8.90;99.90
62573;DHT22;48626;51.678;5.806;2023-11-21T03:30:30;8.90;99.90
62573;DHT22;48626;51.678;5.806;2023-11-21T03:32:56;8.90;99.90
62573;DHT22;48626;51.678;5.806;2023-11-21T03:35:22;8.90;99.90
62573;DHT22;48626;51.678;5.806;2023-11-21T03:37:48;8.90;99.90
62573;DHT22;48626;51.678;5.806;2023-11-21T03:40:14;8.90;99.90
62573;DHT22;48626;51.678;5.806;2023-11-21T03:42:39;8.90;99.90
62573;DHT22;48626;51.678;5.806;2023-11-21T03:45:06;8.90;99.90
62573;DHT22;48626;51.678;5.806;2023-11-21T03:47:32;8.90;99.90
62573;DHT22;48626;51.678;5.806;2023-11-21T03:49:57;8.90;99.90
62573;DHT22;48626;51.678;5.806;2023-11-21T03:52:24;8.90;99.90
62573;DHT22;48626;51.678;5.806;2023-11-21T03:54:49;8.90;99.90
62573;DHT22;48626;51.678;5.806;2023-11-21T03:57:15;8.90;99.90
62573;DHT22;48626;51.678;5.806;2023-11-21T03:59:42;8.90;99.90
62573;DHT22;48626;51.678;5.806;2023-11-21T04:02:08;8.90;99.90
62573;DHT22;48626;51.678;5.806;2023-11-21T04:04:37;8.90;99.90
62573;DHT22;48626;51.678;5.806;2023-11-21T04:07:03;8.90;99.90
62573;DHT22;48626;51.678;5.806;2023-11-21T04:09:29;8.90;99.90
62573;DHT22;48626;51.678;5.806;2023-11-21T04:11:55;8.90;99.90
62573;DHT22;48626;51.678;5.806;2023-11-21T04:14:21;8.90;99.90
62573;DHT22;48626;51.678;5.806;2023-11-21T04:16:46;8.90;99.90
62573;DHT22;48626;51.678;5.806;2023-11-21T04:19:12;8.90;99.90
62573;DHT22;48626;51.678;5.806;2023-11-21T04:21:43;8.90;99.90
62573;DHT22;48626;51.678;5.806;2023-11-21T04:24:09;8.90;99.90
62573;DHT22;48626;51.678;5.806;2023-11-21T04:26:35;8.90;99.90
62573;DHT22;48626;51.678;5.806;2023-11-21T04:29:01;8.90;99.90
62573;DHT22;48626;51.678;5.806;2023-11-21T04:31:27;8.90;99.90
62573;DHT22;48626;51.678;5.806;2023-11-21T04:33:53;8.90;99.90
62573;DHT22;48626;51.678;5.806;2023-11-21T04:36:19;8.90;99.90
62573;DHT22;48626;51.678;5.806;2023-11-21T04:38:45;8.90;99.90
62573;DHT22;48626;51.678;5.806;2023-11-21T04:41:11;8.90;99.90
62573;DHT22;48626;51.678;5.806;2023-11-21T04:43:38;8.90;99.90
62573;DHT22;48626;51.678;5.806;2023-11-21T04:46:04;8.90;99.90
62573;DHT22;48626;51.678;5.806;2023-11-21T04:48:30;9.00;99.90
62573;DHT22;48626;51.678;5.806;2023-11-21T04:50:56;9.00;99.90
62573;DHT22;48626;51.678;5.806;2023-11-21T04:53:21;9.00;99.90
62573;DHT22;48626;51.678;5.806;2023-11-21T04:55:47;8.90;99.90
62573;DHT22;48626;51.678;5.806;2023-11-21T04:58:14;9.00;99.90
62573;DHT22;48626;51.678;5.806;2023-11-21T05:00:39;9.00;99.90
62573;DHT22;48626;51.678;5.806;2023-11-21T05:03:06;9.00;99.90
62573;DHT22;48626;51.678;5.806;2023-11-21T05:05:32;9.00;99.90
62573;DHT22;48626;51.678;5.806;2023-11-21T05:07:59;9.00;99.90
62573;DHT22;48626;51.678;5.806;2023-11-21T05:10:25;9.00;99.90
62573;DHT22;48626;51.678;5.806;2023-11-21T05:12:51;9.00;99.90
62573;DHT22;48626;51.678;5.806;2023-11-21T05:15:17;9.00;99.90
62573;DHT22;48626;51.678;5.806;2023-11-21T05:17:43;9.00;99.90
62573;DHT22;48626;51.678;5.806;2023-11-21T05:20:13;9.00;99.90
62573;DHT22;48626;51.678;5.806;2023-11-21T05:22:42;9.00;99.90
62573;DHT22;48626;51.678;5.806;2023-11-21T05:25:08;9.00;99.90
62573;DHT22;48626;51.678;5.806;2023-11-21T05:27:35;9.00;99.90
62573;DHT22;48626;51.678;5.806;2023-11-21T05:30:04;9.00;99.90
62573;DHT22;48626;51.678;5.806;2023-11-21T05:32:31;9.00;99.90
62573;DHT22;48626;51.678;5.806;2023-11-21T05:34:57;8.90;99.90
62573;DHT22;48626;51.678;5.806;2023-11-21T05:37:22;8.90;99.90
62573;DHT22;48626;51.678;5.806;2023-11-21T05:39:53;9.00;99.90
62573;DHT22;48626;51.678;5.806;2023-11-21T05:42:22;9.00;99.90
62573;DHT22;48626;51.678;5.806;2023-11-21T05:44:48;8.90;99.90
62573;DHT22;48626;51.678;5.806;2023-11-21T05:47:14;9.00;99.90
62573;DHT22;48626;51.678;5.806;2023-11-21T05:49:40;9.00;99.90
62573;DHT22;48626;51.678;5.806;2023-11-21T05:52:06;8.90;99.90
62573;DHT22;48626;51.678;5.806;2023-11-21T05:54:32;9.00;99.90
62573;DHT22;48626;51.678;5.806;2023-11-21T05:56:58;9.00;99.90
62573;DHT22;48626;51.678;5.806;2023-11-21T05:59:24;9.00;99.90
62573;DHT22;48626;51.678;5.806;2023-11-21T06:01:49;9.00;99.90
62573;DHT22;48626;51.678;5.806;2023-11-21T06:04:15;9.00;99.90
62573;DHT22;48626;51.678;5.806;2023-11-21T06:06:41;9.00;99.90
62573;DHT22;48626;51.678;5.806;2023-11-21T06:09:06;9.00;99.90
62573;DHT22;48626;51.678;5.806;2023-11-21T06:11:34;9.00;99.90
62573;DHT22;48626;51.678;5.806;2023-11-21T06:14:00;8.90;99.90
62573;DHT22;48626;51.678;5.806;2023-11-21T06:16:26;9.00;99.90
62573;DHT22;48626;51.678;5.806;2023-11-21T06:18:53;9.00;99.90
62573;DHT22;48626;51.678;5.806;2023-11-21T06:21:19;9.00;99.90
62573;DHT22;48626;51.678;5.806;2023-11-21T06:23:44;9.00;99.90
62573;DHT22;48626;51.678;5.806;2023-11-21T06:26:10;9.00;99.90
62573;DHT22;48626;51.678;5.806;2023-11-21T06:28:35;9.00;99.90
62573;DHT22;48626;51.678;5.806;2023-11-21T06:31:01;9.00;99.90
62573;DHT22;48626;51.678;5.806;2023-11-21T06:33:34;9.00;99.90
62573;DHT22;48626;51.678;5.806;2023-11-21T06:36:00;9.00;99.90
62573;DHT22;48626;51.678;5.806;2023-11-21T06:38:28;9.00;99.90
62573;DHT22;48626;51.678;5.806;2023-11-21T06:40:56;9.00;99.90
62573;DHT22;48626;51.678;5.806;2023-11-21T06:43:23;9.00;99.90
62573;DHT22;48626;51.678;5.806;2023-11-21T06:45:49;9.00;99.90
62573;DHT22;48626;51.678;5.806;2023-11-21T06:48:15;9.00;99.90
62573;DHT22;48626;51.678;5.806;2023-11-21T06:50:41;9.10;99.90
62573;DHT22;48626;51.678;5.806;2023-11-21T06:53:07;9.10;99.90
62573;DHT22;48626;51.678;5.806;2023-11-21T06:55:33;9.10;99.90
62573;DHT22;48626;51.678;5.806;2023-11-21T06:58:00;9.10;99.90
62573;DHT22;48626;51.678;5.806;2023-11-21T07:00:26;9.10;99.90
62573;DHT22;48626;51.678;5.806;2023-11-21T07:02:54;9.10;99.90
62573;DHT22;48626;51.678;5.806;2023-11-21T07:05:21;9.10;99.90
62573;DHT22;48626;51.678;5.806;2023-11-21T07:07:47;9.10;99.90
62573;DHT22;48626;51.678;5.806;2023-11-21T07:10:13;9.10;99.90
62573;DHT22;48626;51.678;5.806;2023-11-21T07:12:39;9.20;99.90
62573;DHT22;48626;51.678;5.806;2023-11-21T07:15:06;9.20;99.90
62573;DHT22;48626;51.678;5.806;2023-11-21T07:17:37;9.20;99.90
62573;DHT22;48626;51.678;5.806;2023-11-21T07:20:03;9.20;99.90
62573;DHT22;48626;51.678;5.806;2023-11-21T07:22:29;9.20;99.90
62573;DHT22;48626;51.678;5.806;2023-11-21T07:24:55;9.20;99.90
62573;DHT22;48626;51.678;5.806;2023-11-21T07:27:24;9.20;99.90
62573;DHT22;48626;51.678;5.806;2023-11-21T07:29:49;9.20;99.90
62573;DHT22;48626;51.678;5.806;2023-11-21T07:32:15;9.20;99.90
62573;DHT22;48626;51.678;5.806;2023-11-21T07:34:41;9.20;99.90
62573;DHT22;48626;51.678;5.806;2023-11-21T07:37:08;9.20;99.90
62573;DHT22;48626;51.678;5.806;2023-11-21T07:39:35;9.20;99.90
62573;DHT22;48626;51.678;5.806;2023-11-21T07:42:02;9.30;99.90
62573;DHT22;48626;51.678;5.806;2023-11-21T07:44:28;9.30;99.90
62573;DHT22;48626;51.678;5.806;2023-11-21T07:46:54;9.30;99.90
62573;DHT22;48626;51.678;5.806;2023-11-21T07:49:26;9.30;99.90
62573;DHT22;48626;51.678;5.806;2023-11-21T07:51:52;9.30;99.90
62573;DHT22;48626;51.678;5.806;2023-11-21T07:54:18;9.40;99.90
62573;DHT22;48626;51.678;5.806;2023-11-21T07:56:43;9.40;99.90
62573;DHT22;48626;51.678;5.806;2023-11-21T07:59:09;9.40;99.90
62573;DHT22;48626;51.678;5.806;2023-11-21T08:01:35;9.40;99.90
62573;DHT22;48626;51.678;5.806;2023-11-21T08:04:00;9.40;99.90
62573;DHT22;48626;51.678;5.806;2023-11-21T08:06:31;9.40;99.90
62573;DHT22;48626;51.678;5.806;2023-11-21T08:08:58;9.50;99.90
62573;DHT22;48626;51.678;5.806;2023-11-21T08:11:24;9.50;99.90
62573;DHT22;48626;51.678;5.806;2023-11-21T08:13:49;9.50;99.90
62573;DHT22;48626;51.678;5.806;2023-11-21T08:16:15;9.50;99.90
62573;DHT22;48626;51.678;5.806;2023-11-21T08:18:42;9.50;99.90
62573;DHT22;48626;51.678;5.806;2023-11-21T08:21:08;9.60;99.90
62573;DHT22;48626;51.678;5.806;2023-11-21T08:23:34;9.60;99.90
62573;DHT22;48626;51.678;5.806;2023-11-21T08:25:59;9.60;99.90
62573;DHT22;48626;51.678;5.806;2023-11-21T08:28:25;9.60;99.90
62573;DHT22;48626;51.678;5.806;2023-11-21T08:30:53;9.60;99.90
62573;DHT22;48626;51.678;5.806;2023-11-21T08:33:22;9.70;99.90
62573;DHT22;48626;51.678;5.806;2023-11-21T08:35:48;9.70;99.90
62573;DHT22;48626;51.678;5.806;2023-11-21T08:38:13;9.80;99.90
62573;DHT22;48626;51.678;5.806;2023-11-21T08:40:39;9.80;99.90
62573;DHT22;48626;51.678;5.806;2023-11-21T08:43:05;9.80;99.90
62573;DHT22;48626;51.678;5.806;2023-11-21T08:45:31;9.80;99.90
62573;DHT22;48626;51.678;5.806;2023-11-21T08:47:59;9.80;99.90
62573;DHT22;48626;51.678;5.806;2023-11-21T08:50:25;9.80;99.90
62573;DHT22;48626;51.678;5.806;2023-11-21T08:52:51;9.80;99.90
62573;DHT22;48626;51.678;5.806;2023-11-21T08:55:16;9.90;99.90
62573;DHT22;48626;51.678;5.806;2023-11-21T08:57:44;9.90;99.90
62573;DHT22;48626;51.678;5.806;2023-11-21T09:00:11;9.90;99.90
62573;DHT22;48626;51.678;5.806;2023-11-21T09:02:40;10.00;99.90
62573;DHT22;48626;51.678;5.806;2023-11-21T09:05:08;10.10;99.90
62573;DHT22;48626;51.678;5.806;2023-11-21T09:07:35;10.10;99.90
62573;DHT22;48626;51.678;5.806;2023-11-21T09:10:01;10.20;99.90
62573;DHT22;48626;51.678;5.806;2023-11-21T09:12:27;10.30;99.90
62573;DHT22;48626;51.678;5.806;2023-11-21T09:14:53;10.30;99.90
62573;DHT22;48626;51.678;5.806;2023-11-21T09:17:19;10.30;99.90
62573;DHT22;48626;51.678;5.806;2023-11-21T09:19:44;10.40;99.90
62573;DHT22;48626;51.678;5.806;2023-11-21T09:22:15;10.40;99.90
62573;DHT22;48626;51.678;5.806;2023-11-21T09:24:40;10.50;99.90
62573;DHT22;48626;51.678;5.806;2023-11-21T09:27:06;10.50;99.90
62573;DHT22;48626;51.678;5.806;2023-11-21T09:29:31;10.50;99.90
62573;DHT22;48626;51.678;5.806;2023-11-21T09:31:57;10.50;99.90
62573;DHT22;48626;51.678;5.806;2023-11-21T09:34:27;10.50;99.90
62573;DHT22;48626;51.678;5.806;2023-11-21T09:36:52;10.60;99.90
62573;DHT22;48626;51.678;5.806;2023-11-21T09:39:19;10.60;99.90
62573;DHT22;48626;51.678;5.806;2023-11-21T09:41:52;10.70;99.90
62573;DHT22;48626;51.678;5.806;2023-11-21T09:44:35;10.70;99.90
62573;DHT22;48626;51.678;5.806;2023-11-21T09:47:02;10.80;99.90
62573;DHT22;48626;51.678;5.806;2023-11-21T09:49:29;10.80;99.90
62573;DHT22;48626;51.678;5.806;2023-11-21T09:52:01;10.90;99.90
62573;DHT22;48626;51.678;5.806;2023-11-21T09:54:30;10.90;99.90
62573;DHT22;48626;51.678;5.806;2023-11-21T09:57:00;10.90;99.90
62573;DHT22;48626;51.678;5.806;2023-11-21T09:59:30;10.90;99.90
62573;DHT22;48626;51.678;5.806;2023-11-21T10:01:56;10.80;99.90
62573;DHT22;48626;51.678;5.806;2023-11-21T10:04:23;10.90;99.90
62573;DHT22;48626;51.678;5.806;2023-11-21T10:06:50;10.80;99.90
62573;DHT22;48626;51.678;5.806;2023-11-21T10:09:16;10.80;99.90
62573;DHT22;48626;51.678;5.806;2023-11-21T10:11:43;10.70;99.90
62573;DHT22;48626;51.678;5.806;2023-11-21T10:14:12;10.80;99.90
62573;DHT22;48626;51.678;5.806;2023-11-21T10:16:40;10.80;99.90
62573;DHT22;48626;51.678;5.806;2023-11-21T10:19:08;10.90;99.90
62573;DHT22;48626;51.678;5.806;2023-11-21T10:21:35;10.90;99.90
62573;DHT22;48626;51.678;5.806;2023-11-21T10:24:01;10.90;99.90
62573;DHT22;48626;51.678;5.806;2023-11-21T10:26:28;10.90;99.90
62573;DHT22;48626;51.678;5.806;2023-11-21T10:29:01;11.00;99.90
62573;DHT22;48626;51.678;5.806;2023-11-21T10:31:32;11.10;99.90
62573;DHT22;48626;51.678;5.806;2023-11-21T10:36:37;11.10;99.90
62573;DHT22;48626;51.678;5.806;2023-11-21T10:39:03;11.00;99.90
62573;DHT22;48626;51.678;5.806;2023-11-21T10:41:29;11.10;99.90
62573;DHT22;48626;51.678;5.806;2023-11-21T10:43:55;11.10;99.90
62573;DHT22;48626;51.678;5.806;2023-11-21T10:46:21;11.00;99.90
62573;DHT22;48626;51.678;5.806;2023-11-21T10:48:57;11.00;99.90
62573;DHT22;48626;51.678;5.806;2023-11-21T10:51:23;11.00;99.90
62573;DHT22;48626;51.678;5.806;2023-11-21T10:53:52;11.00;99.90
62573;DHT22;48626;51.678;5.806;2023-11-21T10:56:27;11.10;99.90
62573;DHT22;48626;51.678;5.806;2023-11-21T10:58:58;11.20;99.90
62573;DHT22;48626;51.678;5.806;2023-11-21T11:01:55;11.20;99.90
62573;DHT22;48626;51.678;5.806;2023-11-21T11:04:28;11.20;99.90
62573;DHT22;48626;51.678;5.806;2023-11-21T11:07:27;11.40;99.90
62573;DHT22;48626;51.678;5.806;2023-11-21T11:10:17;11.50;99.90
62573;DHT22;48626;51.678;5.806;2023-11-21T11:12:56;11.60;99.90
62573;DHT22;48626;51.678;5.806;2023-11-21T11:15:33;11.70;99.90
62573;DHT22;48626;51.678;5.806;2023-11-21T11:18:02;11.70;99.90
62573;DHT22;48626;51.678;5.806;2023-11-21T11:20:34;11.80;99.90
62573;DHT22;48626;51.678;5.806;2023-11-21T11:26:01;11.80;99.90
62573;DHT22;48626;51.678;5.806;2023-11-21T11:28:44;11.80;99.90
62573;DHT22;48626;51.678;5.806;2023-11-21T11:31:37;11.80;99.90
62573;DHT22;48626;51.678;5.806;2023-11-21T11:34:32;11.70;99.90
62573;DHT22;48626;51.678;5.806;2023-11-21T11:37:02;11.80;99.90
62573;DHT22;48626;51.678;5.806;2023-11-21T11:39:41;11.80;99.90
62573;DHT22;48626;51.678;5.806;2023-11-21T11:42:12;11.90;99.90
62573;DHT22;48626;51.678;5.806;2023-11-21T11:47:27;12.00;99.90
62573;DHT22;48626;51.678;5.806;2023-11-21T11:50:07;12.00;99.90
62573;DHT22;48626;51.678;5.806;2023-11-21T11:52:55;11.90;99.90
62573;DHT22;48626;51.678;5.806;2023-11-21T11:55:24;11.80;99.90
62573;DHT22;48626;51.678;5.806;2023-11-21T11:57:53;11.70;99.90
62573;DHT22;48626;51.678;5.806;2023-11-21T12:02:55;11.60;99.90
62573;DHT22;48626;51.678;5.806;2023-11-21T12:05:26;11.60;99.90
62573;DHT22;48626;51.678;5.806;2023-11-21T12:07:57;11.50;99.90
62573;DHT22;48626;51.678;5.806;2023-11-21T12:10:28;11.50;99.90
62573;DHT22;48626;51.678;5.806;2023-11-21T12:12:59;11.50;99.90
62573;DHT22;48626;51.678;5.806;2023-11-21T12:15:25;11.50;99.90
62573;DHT22;48626;51.678;5.806;2023-11-21T12:17:52;11.50;99.90
62573;DHT22;48626;51.678;5.806;2023-11-21T12:20:23;11.50;99.90
62573;DHT22;48626;51.678;5.806;2023-11-21T12:22:50;11.50;99.90
62573;DHT22;48626;51.678;5.806;2023-11-21T12:25:18;11.50;99.90
62573;DHT22;48626;51.678;5.806;2023-11-21T12:27:45;11.40;99.90
62573;DHT22;48626;51.678;5.806;2023-11-21T12:30:12;11.50;99.90
62573;DHT22;48626;51.678;5.806;2023-11-21T12:32:43;11.50;99.90
62573;DHT22;48626;51.678;5.806;2023-11-21T12:35:09;11.50;99.90
62573;DHT22;48626;51.678;5.806;2023-11-21T12:37:39;11.50;99.90
62573;DHT22;48626;51.678;5.806;2023-11-21T12:40:09;11.50;99.90
62573;DHT22;48626;51.678;5.806;2023-11-21T12:42:41;11.50;99.90
62573;DHT22;48626;51.678;5.806;2023-11-21T12:47:49;11.50;99.90
62573;DHT22;48626;51.678;5.806;2023-11-21T12:50:18;11.50;99.90
62573;DHT22;48626;51.678;5.806;2023-11-21T12:52:47;11.50;99.90
62573;DHT22;48626;51.678;5.806;2023-11-21T12:55:21;11.50;99.90
62573;DHT22;48626;51.678;5.806;2023-11-21T12:57:52;11.60;99.90
62573;DHT22;48626;51.678;5.806;2023-11-21T13:00:20;11.60;99.90
62573;DHT22;48626;51.678;5.806;2023-11-21T13:02:57;11.70;99.90
62573;DHT22;48626;51.678;5.806;2023-11-21T13:05:28;11.60;99.90
62573;DHT22;48626;51.678;5.806;2023-11-21T13:07:54;11.70;99.90
62573;DHT22;48626;51.678;5.806;2023-11-21T13:10:24;11.60;99.90
62573;DHT22;48626;51.678;5.806;2023-11-21T13:12:52;11.60;99.90
62573;DHT22;48626;51.678;5.806;2023-11-21T13:15:17;11.60;99.90
62573;DHT22;48626;51.678;5.806;2023-11-21T13:17:44;11.70;99.90
62573;DHT22;48626;51.678;5.806;2023-11-21T13:20:12;11.70;99.90
62573;DHT22;48626;51.678;5.806;2023-11-21T13:22:49;11.70;99.90
62573;DHT22;48626;51.678;5.806;2023-11-21T13:25:17;11.70;99.90
62573;DHT22;48626;51.678;5.806;2023-11-21T13:27:45;11.70;99.90
62573;DHT22;48626;51.678;5.806;2023-11-21T13:30:14;11.70;99.90
62573;DHT22;48626;51.678;5.806;2023-11-21T13:32:48;11.70;99.90
62573;DHT22;48626;51.678;5.806;2023-11-21T13:35:20;11.80;99.90
62573;DHT22;48626;51.678;5.806;2023-11-21T13:37:56;11.80;99.90
62573;DHT22;48626;51.678;5.806;2023-11-21T13:40:25;11.80;99.90
62573;DHT22;48626;51.678;5.806;2023-11-21T13:42:55;11.80;99.90
62573;DHT22;48626;51.678;5.806;2023-11-21T13:45:27;11.90;99.90
62573;DHT22;48626;51.678;5.806;2023-11-21T13:47:54;11.90;99.90
62573;DHT22;48626;51.678;5.806;2023-11-21T13:50:27;11.90;99.90
62573;DHT22;48626;51.678;5.806;2023-11-21T13:53:02;11.90;99.90
62573;DHT22;48626;51.678;5.806;2023-11-21T13:55:34;11.90;99.90
62573;DHT22;48626;51.678;5.806;2023-11-21T13:58:01;11.80;99.90
62573;DHT22;48626;51.678;5.806;2023-11-21T14:00:30;11.80;99.90
62573;DHT22;48626;51.678;5.806;2023-11-21T14:03:11;11.80;99.90
62573;DHT22;48626;51.678;5.806;2023-11-21T14:05:44;11.70;99.90
62573;DHT22;48626;51.678;5.806;2023-11-21T14:08:13;11.70;99.90
62573;DHT22;48626;51.678;5.806;2023-11-21T14:10:45;11.60;99.90
62573;DHT22;48626;51.678;5.806;2023-11-21T14:13:16;11.60;99.90
62573;DHT22;48626;51.678;5.806;2023-11-21T14:15:43;11.60;99.90
62573;DHT22;48626;51.678;5.806;2023-11-21T14:18:11;11.50;99.90
62573;DHT22;48626;51.678;5.806;2023-11-21T14:20:40;11.50;99.90
62573;DHT22;48626;51.678;5.806;2023-11-21T14:23:06;11.50;99.90
62573;DHT22;48626;51.678;5.806;2023-11-21T14:25:36;11.50;99.90
62573;DHT22;48626;51.678;5.806;2023-11-21T14:28:03;11.50;99.90
62573;DHT22;48626;51.678;5.806;2023-11-21T14:30:30;11.40;99.90
62573;DHT22;48626;51.678;5.806;2023-11-21T14:32:58;11.40;99.90
62573;DHT22;48626;51.678;5.806;2023-11-21T14:35:24;11.40;99.90
62573;DHT22;48626;51.678;5.806;2023-11-21T14:37:52;11.30;99.90
62573;DHT22;48626;51.678;5.806;2023-11-21T14:40:18;11.30;99.90
62573;DHT22;48626;51.678;5.806;2023-11-21T14:42:48;11.30;99.90
62573;DHT22;48626;51.678;5.806;2023-11-21T14:45:13;11.30;99.90
62573;DHT22;48626;51.678;5.806;2023-11-21T14:47:45;11.30;99.90
62573;DHT22;48626;51.678;5.806;2023-11-21T14:50:17;11.30;99.90
62573;DHT22;48626;51.678;5.806;2023-11-21T14:53:09;11.20;99.90
62573;DHT22;48626;51.678;5.806;2023-11-21T14:55:36;11.20;99.90
62573;DHT22;48626;51.678;5.806;2023-11-21T14:58:19;11.20;99.90
62573;DHT22;48626;51.678;5.806;2023-11-21T15:00:55;11.20;99.90
62573;DHT22;48626;51.678;5.806;2023-11-21T15:03:25;11.20;99.90
62573;DHT22;48626;51.678;5.806;2023-11-21T15:06:00;11.20;99.90
62573;DHT22;48626;51.678;5.806;2023-11-21T15:08:49;11.10;99.90
62573;DHT22;48626;51.678;5.806;2023-11-21T15:11:21;11.10;99.90
62573;DHT22;48626;51.678;5.806;2023-11-21T15:13:53;11.00;99.90
62573;DHT22;48626;51.678;5.806;2023-11-21T15:16:19;11.10;99.90
62573;DHT22;48626;51.678;5.806;2023-11-21T15:18:45;11.10;99.90
62573;DHT22;48626;51.678;5.806;2023-11-21T15:21:10;11.10;99.90
62573;DHT22;48626;51.678;5.806;2023-11-21T15:23:38;11.10;99.90
62573;DHT22;48626;51.678;5.806;2023-11-21T15:26:04;11.10;99.90
62573;DHT22;48626;51.678;5.806;2023-11-21T15:28:30;11.10;99.90
62573;DHT22;48626;51.678;5.806;2023-11-21T15:30:58;11.00;99.90
62573;DHT22;48626;51.678;5.806;2023-11-21T15:33:23;11.00;99.90
62573;DHT22;48626;51.678;5.806;2023-11-21T15:35:49;10.90;99.90
62573;DHT22;48626;51.678;5.806;2023-11-21T15:38:15;10.90;99.90
62573;DHT22;48626;51.678;5.806;2023-11-21T15:40:41;10.90;99.90
62573;DHT22;48626;51.678;5.806;2023-11-21T15:43:08;10.90;99.90
62573;DHT22;48626;51.678;5.806;2023-11-21T15:45:34;10.80;99.90
62573;DHT22;48626;51.678;5.806;2023-11-21T15:47:59;10.80;99.90
62573;DHT22;48626;51.678;5.806;2023-11-21T15:50:26;10.70;99.90
62573;DHT22;48626;51.678;5.806;2023-11-21T15:52:53;10.80;99.90
62573;DHT22;48626;51.678;5.806;2023-11-21T15:55:19;10.80;99.90
62573;DHT22;48626;51.678;5.806;2023-11-21T15:57:45;10.70;99.90
62573;DHT22;48626;51.678;5.806;2023-11-21T16:00:11;10.70;99.90